createdAt,value
2018-07-05T00:03:46.483Z,20.94
2018-07-05T00:06:15.406Z,20.89
2018-07-05T00:11:34.555Z,20.82
2018-07-05T00:14:06.880Z,20.78
2018-07-05T00:22:06.668Z,20.65
2018-07-05T00:24:40.309Z,20.60
2018-07-05T00:37:36.478Z,20.45
2018-07-05T00:40:53.915Z,20.38
2018-07-05T00:46:02.670Z,20.27
2018-07-05T01:03:19.651Z,20.15
2018-07-05T01:05:47.355Z,20.13
2018-07-05T01:08:44.126Z,20.12
2018-07-05T01:13:45.959Z,20.13
2018-07-05T01:18:55.773Z,20.17
2018-07-05T01:26:45.289Z,20.32
2018-07-05T01:46:21.246Z,20.04
2018-07-05T01:48:48.878Z,19.93
2018-07-05T01:51:16.824Z,19.82
2018-07-05T11:44:09.759Z,29.10
2018-07-05T11:49:12.580Z,28.93
2018-07-05T11:51:40.187Z,28.74
2018-07-05T11:54:09.316Z,28.46
2018-07-05T11:56:38.281Z,28.28
2018-07-05T11:59:08.487Z,28.16
2018-07-05T12:01:40.867Z,28.09
2018-07-05T12:04:09.201Z,28.01
2018-07-05T12:06:37.784Z,27.96
2018-07-05T12:09:10.207Z,27.97
2018-07-05T12:12:08.347Z,28.14
2018-07-05T12:14:38.893Z,28.67
2018-07-05T12:17:06.524Z,29.05
2018-07-05T12:19:34.138Z,29.40
2018-07-05T12:22:54.564Z,29.47
2018-07-05T12:25:25.749Z,29.20
2018-07-05T14:16:14.801Z,24.53
2018-07-05T14:18:42.489Z,24.63
2018-07-05T14:21:10.804Z,24.68
2018-07-05T14:23:39.273Z,24.69
2018-07-05T14:26:07.659Z,24.62
2018-07-05T14:28:35.363Z,24.54
2018-07-05T14:31:04.941Z,24.45
2018-07-05T14:33:32.662Z,24.37
2018-07-05T14:36:01.107Z,24.26
2018-07-05T14:38:29.231Z,24.18
2018-07-05T14:41:01.544Z,24.12
2018-07-05T14:43:36.656Z,24.10
2018-07-05T14:46:06.054Z,24.08
2018-07-05T14:48:33.723Z,24.07
2018-07-05T14:51:01.688Z,24.01
2018-07-05T14:53:29.657Z,23.89
2018-07-05T14:55:57.775Z,23.84
2018-07-05T14:58:25.457Z,23.78
2018-07-05T15:00:55.994Z,23.80
2018-07-05T15:03:24.369Z,23.88
2018-07-05T15:05:52.223Z,24.01
2018-07-05T15:08:21.558Z,24.13
2018-07-05T15:10:49.252Z,24.26
2018-07-05T15:13:17.536Z,24.24
2018-07-05T15:15:45.459Z,24.22
2018-07-05T15:18:20.559Z,24.27
2018-07-05T15:23:21.619Z,24.19
2018-07-05T15:25:49.289Z,24.17
2018-07-05T15:30:54.481Z,24.12
2018-07-05T15:33:25.333Z,24.14
2018-07-05T15:35:53.835Z,24.35
2018-07-05T15:38:21.804Z,24.38
2018-07-05T15:40:53.275Z,24.35
2018-07-05T15:43:20.944Z,24.33
2018-07-05T15:48:22.820Z,24.66
2018-07-05T15:50:50.680Z,24.87
2018-07-05T15:55:59.201Z,25.38
2018-07-05T15:58:37.254Z,25.50
2018-07-05T16:01:06.732Z,25.58
2018-07-05T16:03:34.398Z,25.58
2018-07-05T16:06:04.686Z,25.63
2018-07-05T16:08:34.472Z,25.69
2018-07-05T16:11:03.326Z,25.78
2018-07-05T16:13:32.621Z,25.93
2018-07-05T16:16:01.785Z,26.02
2018-07-05T16:18:30.093Z,26.51
2018-07-05T16:20:58.281Z,26.86
2018-07-05T16:23:26.248Z,27.07
2018-07-05T16:25:53.939Z,27.20
2018-07-05T16:28:22.199Z,27.57
2018-07-05T16:30:50.194Z,27.92
2018-07-05T16:33:20.865Z,28.06
2018-07-05T16:35:49.197Z,28.00
2018-07-05T16:38:17.141Z,27.88
2018-07-05T16:40:44.821Z,27.92
2018-07-05T16:43:13.720Z,27.94
2018-07-05T16:45:43.296Z,27.88
2018-07-05T16:48:10.996Z,27.90
2018-07-05T16:50:57.422Z,28.17
2018-07-05T16:58:52.115Z,29.31
2018-07-05T17:01:20.791Z,29.31
2018-07-05T17:03:53.273Z,29.12
2018-07-05T17:06:25.815Z,28.88
2018-07-05T17:09:01.237Z,28.60
2018-07-05T17:11:30.258Z,28.28
2018-07-05T17:53:20.966Z,26.84
2018-07-05T17:55:48.593Z,26.82
2018-07-05T17:58:17.800Z,26.80
2018-07-05T18:00:46.481Z,26.79
2018-07-05T18:03:24.969Z,26.75
2018-07-05T18:05:54.364Z,26.71
2018-07-05T18:08:22.631Z,26.68
2018-07-05T18:10:54.262Z,26.64
2018-07-05T18:13:21.883Z,26.62
2018-07-05T18:27:44.679Z,26.14
2018-07-05T19:22:55.875Z,24.40
2018-07-05T19:25:23.495Z,24.32
2018-07-05T19:27:53.233Z,24.27
2018-07-05T19:30:20.897Z,24.21
2018-07-05T19:32:50.299Z,24.15
2018-07-05T19:36:37.028Z,24.07
